createdAt,value
2019-06-20T00:01:22.781Z,99493.00
2019-06-20T00:03:53.426Z,99490.00
2019-06-20T00:06:23.894Z,99486.00
2019-06-20T00:08:54.396Z,99485.00
2019-06-20T00:11:24.778Z,99496.00
2019-06-20T00:13:55.170Z,99503.00
2019-06-20T00:16:25.609Z,99503.00
2019-06-20T00:18:56.010Z,99503.00
2019-06-20T00:21:26.376Z,99509.00
2019-06-20T00:23:56.757Z,99501.00
2019-06-20T00:26:27.124Z,99491.00
2019-06-20T00:28:57.494Z,99491.00
2019-06-20T00:31:27.873Z,99496.00
2019-06-20T00:33:58.245Z,99482.00
2019-06-20T00:36:28.613Z,99485.00
2019-06-20T00:38:58.970Z,99473.00
2019-06-20T00:41:29.337Z,99481.00
2019-06-20T00:43:59.703Z,99478.00
2019-06-20T00:46:30.076Z,99471.00
2019-06-20T00:49:00.493Z,99468.00
2019-06-20T00:51:30.983Z,99456.00
2019-06-20T00:54:01.340Z,99451.00
2019-06-20T00:56:31.712Z,99459.00
2019-06-20T00:59:02.137Z,99465.00
2019-06-20T01:01:32.528Z,99465.00
2019-06-20T01:04:02.958Z,99467.00
2019-06-20T01:06:33.356Z,99460.00
2019-06-20T01:09:05.253Z,99451.00
2019-06-20T01:11:35.628Z,99451.00
2019-06-20T01:14:06.660Z,99467.00
2019-06-20T01:16:37.086Z,99458.00
2019-06-20T01:19:07.449Z,99463.00
2019-06-20T01:21:37.818Z,99459.00
2019-06-20T01:24:08.204Z,99456.00
2019-06-20T01:26:38.577Z,99450.00
2019-06-20T01:29:08.941Z,99453.00
2019-06-20T01:31:39.309Z,99462.00
2019-06-20T01:34:09.667Z,99454.00
2019-06-20T01:36:40.044Z,99448.00
2019-06-20T01:39:10.472Z,99450.00
2019-06-20T01:41:40.849Z,99450.00
2019-06-20T01:44:11.212Z,99447.00
2019-06-20T01:46:41.583Z,99441.00
2019-06-20T01:49:12.009Z,99424.00
2019-06-20T01:51:42.386Z,99430.00
2019-06-20T01:54:12.747Z,99426.00
2019-06-20T01:56:43.120Z,99419.00
2019-06-20T01:59:13.489Z,99427.00
2019-06-20T02:01:43.862Z,99436.00
2019-06-20T02:04:14.265Z,99432.00
2019-06-20T02:06:44.679Z,99423.00
2019-06-20T02:09:15.001Z,99429.00
2019-06-20T02:11:45.622Z,99425.00
2019-06-20T02:14:15.978Z,99433.00
2019-06-20T02:16:46.686Z,99418.00
2019-06-20T02:19:17.060Z,99421.00
2019-06-20T02:21:47.428Z,99424.00
2019-06-20T02:24:17.789Z,99426.00
2019-06-20T02:26:48.163Z,99429.00
2019-06-20T02:29:18.516Z,99429.00
2019-06-20T02:31:48.930Z,99430.00
2019-06-20T02:34:19.289Z,99434.00
2019-06-20T02:36:49.655Z,99433.00
2019-06-20T02:39:20.020Z,99440.00
2019-06-20T02:41:50.388Z,99436.00
2019-06-20T02:44:29.884Z,99445.00
2019-06-20T02:46:52.811Z,99450.00
2019-06-20T02:49:23.167Z,99448.00
2019-06-20T02:51:54.602Z,99455.00
2019-06-20T02:54:24.964Z,99461.00
2019-06-20T02:56:55.328Z,99465.00
2019-06-20T02:59:25.717Z,99466.00
2019-06-20T03:01:56.091Z,99467.00
2019-06-20T03:04:26.447Z,99464.00
2019-06-20T03:06:57.884Z,99464.00
2019-06-20T03:09:28.244Z,99451.00
2019-06-20T03:11:58.613Z,99460.00
2019-06-20T03:14:44.281Z,99462.00
2019-06-20T03:17:01.036Z,99487.00
2019-06-20T03:19:31.399Z,99509.00
2019-06-20T03:22:01.777Z,99504.00
2019-06-20T03:24:32.140Z,99504.00
2019-06-20T03:27:02.520Z,99484.00
2019-06-20T03:29:32.884Z,99484.00
2019-06-20T03:32:03.260Z,99482.00
2019-06-20T03:34:33.619Z,99485.00
2019-06-20T03:37:04.063Z,99485.00
2019-06-20T03:39:34.424Z,99487.00
2019-06-20T03:42:04.825Z,99480.00
2019-06-20T03:44:35.189Z,99491.00
2019-06-20T03:47:05.582Z,99487.00
2019-06-20T03:49:35.940Z,99492.00
2019-06-20T03:52:06.361Z,99485.00
2019-06-20T03:54:36.721Z,99483.00
2019-06-20T03:57:07.201Z,99487.00
2019-06-20T03:59:37.563Z,99481.00
2019-06-20T04:02:07.953Z,99485.00
2019-06-20T04:04:38.319Z,99487.00
2019-06-20T04:07:09.772Z,99484.00
2019-06-20T04:09:40.455Z,99488.00
2019-06-20T04:12:10.859Z,99506.00
2019-06-20T04:14:41.194Z,99524.00
2019-06-20T04:17:11.660Z,99532.00
2019-06-20T04:19:42.032Z,99529.00
2019-06-20T04:22:12.392Z,99523.00
2019-06-20T04:24:42.768Z,99513.00
2019-06-20T04:27:13.123Z,99512.00
2019-06-20T04:29:43.496Z,99519.00
2019-06-20T04:32:13.877Z,99503.00
2019-06-20T04:34:44.249Z,99515.00
2019-06-20T04:37:14.612Z,99545.00
2019-06-20T04:39:44.982Z,99553.00
2019-06-20T04:42:18.526Z,99547.00
2019-06-20T04:44:47.420Z,99540.00
2019-06-20T04:47:17.853Z,99562.00
2019-06-20T04:49:48.487Z,99596.00
2019-06-20T04:52:18.854Z,99583.00
2019-06-20T04:54:49.218Z,99592.00
2019-06-20T04:57:19.580Z,99591.00
2019-06-20T04:59:51.599Z,99606.00
2019-06-20T05:02:23.609Z,99617.00
2019-06-20T05:04:53.977Z,99613.00
2019-06-20T05:07:24.340Z,99622.00
2019-06-20T05:09:54.978Z,99630.00
2019-06-20T05:12:25.345Z,99647.00
2019-06-20T05:14:55.720Z,99650.00
2019-06-20T05:17:26.085Z,99647.00
2019-06-20T05:19:56.460Z,99664.00
2019-06-20T05:22:26.824Z,99670.00
2019-06-20T05:24:57.205Z,99670.00
2019-06-20T05:27:27.567Z,99679.00
2019-06-20T05:29:57.936Z,99693.00
2019-06-20T05:32:28.293Z,99702.00
2019-06-20T05:35:02.651Z,99707.00
2019-06-20T05:37:30.727Z,99715.00
2019-06-20T05:40:01.093Z,99715.00
2019-06-20T05:42:31.472Z,99714.00
2019-06-20T05:45:01.928Z,99707.00
2019-06-20T05:47:32.282Z,99716.00
2019-06-20T05:50:02.661Z,99718.00
2019-06-20T05:52:33.025Z,99716.00
2019-06-20T05:55:05.141Z,99714.00
2019-06-20T05:57:35.504Z,99718.00
2019-06-20T06:00:08.685Z,99725.00
2019-06-20T06:02:40.248Z,99724.00
2019-06-20T06:05:12.271Z,99722.00
2019-06-20T06:07:42.637Z,99715.00
2019-06-20T06:10:13.715Z,99708.00
2019-06-20T06:12:45.267Z,99705.00
2019-06-20T06:15:15.770Z,99709.00
2019-06-20T06:17:46.131Z,99701.00
2019-06-20T06:20:18.311Z,99700.00
2019-06-20T06:22:48.670Z,99695.00
2019-06-20T06:25:19.214Z,99700.00
2019-06-20T06:27:49.595Z,99693.00
2019-06-20T06:30:21.060Z,99692.00
2019-06-20T06:32:50.705Z,99707.00
2019-06-20T06:35:21.271Z,99690.00
2019-06-20T06:37:51.656Z,99691.00
2019-06-20T06:40:22.739Z,99704.00
2019-06-20T06:42:53.117Z,99702.00
2019-06-20T06:45:24.022Z,99711.00
2019-06-20T06:47:54.385Z,99714.00
2019-06-20T06:50:25.872Z,99718.00
2019-06-20T06:52:55.807Z,99716.00
2019-06-20T06:55:27.867Z,99723.00
2019-06-20T06:57:58.514Z,99722.00
2019-06-20T07:00:29.140Z,99725.00
2019-06-20T07:02:59.497Z,99709.00
2019-06-20T07:05:30.213Z,99714.00
2019-06-20T07:08:00.576Z,99724.00
2019-06-20T07:10:30.932Z,99706.00
2019-06-20T07:13:01.300Z,99706.00
2019-06-20T07:15:31.832Z,99708.00
2019-06-20T07:18:02.263Z,99712.00
2019-06-20T07:20:32.635Z,99710.00
2019-06-20T07:23:02.994Z,99708.00
2019-06-20T07:25:33.370Z,99689.00
2019-06-20T07:28:03.738Z,99707.00
2019-06-20T07:30:35.272Z,99689.00
2019-06-20T07:33:05.723Z,99679.00
2019-06-20T07:35:36.086Z,99688.00
2019-06-20T07:38:06.447Z,99706.00
2019-06-20T07:40:36.841Z,99714.00
2019-06-20T07:43:07.208Z,99700.00
2019-06-20T07:45:37.594Z,99705.00
2019-06-20T07:48:07.946Z,99709.00
2019-06-20T07:50:39.453Z,99711.00
2019-06-20T07:53:10.937Z,99720.00
2019-06-20T07:55:41.560Z,99714.00
2019-06-20T07:58:11.789Z,99723.00
2019-06-20T08:00:42.165Z,99717.00
2019-06-20T08:03:12.527Z,99722.00
2019-06-20T08:05:42.900Z,99728.00
2019-06-20T08:08:13.260Z,99745.00
2019-06-20T08:10:43.633Z,99761.00
2019-06-20T08:13:13.994Z,99768.00
2019-06-20T08:15:44.430Z,99780.00
2019-06-20T08:18:14.960Z,99773.00
2019-06-20T08:20:45.332Z,99751.00
2019-06-20T08:23:15.688Z,99750.00
2019-06-20T08:25:46.062Z,99762.00
2019-06-20T08:28:16.422Z,99762.00
2019-06-20T08:30:46.802Z,99751.00
2019-06-20T08:33:17.169Z,99734.00
2019-06-20T08:35:47.534Z,99728.00
2019-06-20T08:38:18.813Z,99727.00
2019-06-20T08:40:48.463Z,99734.00
2019-06-20T08:43:18.712Z,99739.00
2019-06-20T08:45:49.063Z,99737.00
2019-06-20T08:48:19.436Z,99743.00
2019-06-20T08:50:49.801Z,99747.00
2019-06-20T08:53:20.188Z,99738.00
2019-06-20T08:55:50.551Z,99744.00
2019-06-20T08:58:21.198Z,99754.00
2019-06-20T09:00:52.636Z,99753.00
2019-06-20T09:03:22.979Z,99751.00
2019-06-20T09:05:54.925Z,99755.00
2019-06-20T09:08:25.442Z,99759.00
2019-06-20T09:10:55.801Z,99766.00
2019-06-20T09:13:26.169Z,99766.00
2019-06-20T09:15:56.807Z,99760.00
2019-06-20T09:18:27.178Z,99752.00
2019-06-20T09:20:58.094Z,99752.00
2019-06-20T09:23:28.502Z,99748.00
2019-06-20T09:25:59.659Z,99751.00
2019-06-20T09:28:30.088Z,99743.00
2019-06-20T09:31:00.447Z,99751.00
2019-06-20T09:33:30.830Z,99756.00
2019-06-20T09:36:01.191Z,99755.00
2019-06-20T09:38:31.563Z,99757.00
2019-06-20T09:41:03.341Z,99758.00
2019-06-20T09:43:33.912Z,99759.00
2019-06-20T09:46:04.613Z,99756.00
2019-06-20T09:48:35.241Z,99749.00
2019-06-20T09:51:05.470Z,99760.00
2019-06-20T09:53:35.848Z,99763.00
2019-06-20T09:56:06.206Z,99771.00
2019-06-20T09:58:36.580Z,99770.00
2019-06-20T10:01:06.942Z,99768.00
2019-06-20T10:03:37.314Z,99778.00
2019-06-20T10:06:13.837Z,99770.00
2019-06-20T10:08:40.000Z,99780.00
2019-06-20T10:11:10.359Z,99767.00
2019-06-20T10:13:40.734Z,99777.00
2019-06-20T10:16:11.107Z,99772.00
2019-06-20T10:18:41.483Z,99768.00
2019-06-20T10:21:11.848Z,99772.00
2019-06-20T10:23:43.196Z,99765.00
2019-06-20T10:26:13.561Z,99766.00
2019-06-20T10:28:44.619Z,99767.00
2019-06-20T10:31:16.076Z,99774.00
2019-06-20T10:33:46.894Z,99770.00
2019-06-20T10:36:18.341Z,99774.00
2019-06-20T10:38:50.233Z,99770.00
2019-06-20T10:41:20.703Z,99778.00
2019-06-20T10:43:51.770Z,99780.00
2019-06-20T10:46:22.289Z,99778.00
2019-06-20T10:48:52.978Z,99771.00
2019-06-20T10:51:42.381Z,99773.00
2019-06-20T10:54:13.247Z,99780.00
2019-06-20T10:56:44.114Z,99776.00
2019-06-20T10:59:15.848Z,99791.00
2019-06-20T11:01:48.363Z,99783.00
2019-06-20T11:04:18.876Z,99783.00
2019-06-20T11:06:49.666Z,99792.00
2019-06-20T11:09:20.210Z,99789.00
2019-06-20T11:11:50.576Z,99787.00
2019-06-20T11:14:20.943Z,99782.00
2019-06-20T11:16:51.305Z,99785.00
2019-06-20T11:19:21.691Z,99785.00
2019-06-20T11:21:52.049Z,99776.00
2019-06-20T11:24:22.463Z,99784.00
2019-06-20T11:26:52.829Z,99780.00
2019-06-20T11:29:23.198Z,99773.00
2019-06-20T11:31:53.570Z,99774.00
2019-06-20T11:34:23.944Z,99783.00
2019-06-20T11:36:54.329Z,99777.00
2019-06-20T11:39:24.690Z,99784.00
2019-06-20T11:41:55.065Z,99783.00
2019-06-20T11:44:25.432Z,99774.00
2019-06-20T11:46:55.797Z,99775.00
2019-06-20T11:49:26.168Z,99777.00
2019-06-20T11:51:56.807Z,99771.00
2019-06-20T11:54:27.287Z,99773.00
2019-06-20T11:56:57.644Z,99767.00
2019-06-20T11:59:28.184Z,99773.00
2019-06-20T12:01:58.554Z,99772.00
2019-06-20T12:04:28.924Z,99771.00
2019-06-20T12:06:59.293Z,99771.00
2019-06-20T12:09:29.683Z,99772.00
2019-06-20T12:12:00.058Z,99774.00
2019-06-20T12:14:30.435Z,99766.00
2019-06-20T12:17:00.800Z,99759.00
2019-06-20T12:19:31.201Z,99756.00
2019-06-20T12:22:01.592Z,99755.00
2019-06-20T12:24:32.004Z,99748.00
2019-06-20T12:27:02.391Z,99741.00
2019-06-20T12:29:32.846Z,99757.00
2019-06-20T12:32:03.214Z,99756.00
2019-06-20T12:34:33.593Z,99763.00
2019-06-20T12:37:03.961Z,99759.00
2019-06-20T12:39:34.357Z,99741.00
2019-06-20T12:42:04.728Z,99736.00
2019-06-20T12:44:35.096Z,99733.00
2019-06-20T12:47:05.527Z,99743.00
2019-06-20T12:49:37.274Z,99753.00
2019-06-20T12:52:07.971Z,99755.00
2019-06-20T12:54:39.567Z,99751.00
2019-06-20T12:57:10.402Z,99754.00
2019-06-20T12:59:41.336Z,99754.00
2019-06-20T13:02:13.041Z,99752.00
2019-06-20T13:04:51.332Z,99737.00
2019-06-20T13:07:22.208Z,99725.00
2019-06-20T13:09:52.656Z,99721.00
2019-06-20T13:12:23.041Z,99722.00
2019-06-20T13:14:53.385Z,99723.00
2019-06-20T13:17:23.751Z,99729.00
2019-06-20T13:19:54.160Z,99738.00
2019-06-20T13:22:24.496Z,99748.00
2019-06-20T13:24:54.874Z,99750.00
2019-06-20T13:27:25.238Z,99744.00
2019-06-20T13:29:55.620Z,99751.00
2019-06-20T13:32:25.981Z,99744.00
2019-06-20T13:34:56.413Z,99740.00
2019-06-20T13:37:27.050Z,99730.00
2019-06-20T13:39:57.443Z,99726.00
2019-06-20T13:42:27.876Z,99725.00
2019-06-20T13:44:58.281Z,99727.00
2019-06-20T13:47:28.630Z,99732.00
2019-06-20T13:49:59.012Z,99733.00
2019-06-20T13:52:29.388Z,99727.00
2019-06-20T13:54:59.870Z,99727.00
2019-06-20T13:57:30.258Z,99728.00
2019-06-20T14:00:00.612Z,99725.00
2019-06-20T14:02:45.403Z,99611.00
2019-06-20T14:05:16.123Z,99725.00
2019-06-20T14:07:50.548Z,99729.00
2019-06-20T14:10:18.975Z,99722.00
2019-06-20T14:12:49.352Z,99716.00
2019-06-20T14:15:20.664Z,99712.00
2019-06-20T14:17:51.285Z,99718.00
2019-06-20T14:20:23.222Z,99715.00
2019-06-20T14:22:54.605Z,99713.00
2019-06-20T14:25:25.102Z,99717.00
2019-06-20T14:27:55.468Z,99707.00
2019-06-20T14:30:26.451Z,99701.00
2019-06-20T14:32:58.272Z,99699.00
2019-06-20T14:35:28.641Z,99693.00
2019-06-20T14:37:59.576Z,99700.00
2019-06-20T14:40:29.947Z,99691.00
2019-06-20T14:43:00.311Z,99686.00
2019-06-20T14:45:30.680Z,99688.00
2019-06-20T14:48:01.049Z,99698.00
2019-06-20T14:50:31.761Z,99695.00
2019-06-20T14:53:02.123Z,99694.00
2019-06-20T14:55:32.520Z,99683.00
2019-06-20T14:58:02.891Z,99677.00
2019-06-20T15:00:33.690Z,99684.00
2019-06-20T15:03:04.533Z,99676.00
2019-06-20T15:05:35.039Z,99677.00
2019-06-20T15:08:05.373Z,99670.00
2019-06-20T15:10:35.774Z,99669.00
2019-06-20T15:13:06.151Z,99675.00
2019-06-20T15:15:37.311Z,99680.00
2019-06-20T15:18:07.677Z,99664.00
2019-06-20T15:20:38.061Z,99673.00
2019-06-20T15:23:08.865Z,99668.00
2019-06-20T15:25:39.344Z,99664.00
2019-06-20T15:28:09.722Z,99668.00
2019-06-20T15:30:40.453Z,99670.00
2019-06-20T15:33:10.842Z,99666.00
2019-06-20T15:35:41.216Z,99662.00
2019-06-20T15:38:11.572Z,99665.00
2019-06-20T15:40:41.955Z,99666.00
2019-06-20T15:43:12.320Z,99658.00
2019-06-20T15:45:42.706Z,99660.00
2019-06-20T15:48:13.240Z,99649.00
2019-06-20T15:50:43.912Z,99651.00
2019-06-20T15:53:14.278Z,99641.00
2019-06-20T15:55:44.647Z,99639.00
2019-06-20T15:58:15.040Z,99640.00
2019-06-20T16:00:46.537Z,99645.00
2019-06-20T16:03:16.912Z,99644.00
2019-06-20T16:05:47.275Z,99638.00
2019-06-20T16:08:17.722Z,99651.00
2019-06-20T16:10:48.409Z,99645.00
2019-06-20T16:13:18.896Z,99658.00
2019-06-20T16:15:49.218Z,99665.00
2019-06-20T16:18:19.592Z,99667.00
2019-06-20T16:20:49.958Z,99671.00
2019-06-20T16:23:20.342Z,99678.00
2019-06-20T16:25:50.705Z,99683.00
2019-06-20T16:28:21.088Z,99685.00
2019-06-20T16:31:07.667Z,99694.00
2019-06-20T16:33:25.538Z,99684.00
2019-06-20T16:35:56.059Z,99683.00
2019-06-20T16:38:26.427Z,99683.00
2019-06-20T16:40:57.768Z,99690.00
2019-06-20T16:43:28.141Z,99681.00
2019-06-20T16:45:58.493Z,99686.00
2019-06-20T16:48:28.898Z,99696.00
2019-06-20T16:50:59.363Z,99693.00
2019-06-20T16:53:29.760Z,99692.00
2019-06-20T16:56:00.091Z,99694.00
2019-06-20T16:58:30.731Z,99702.00
2019-06-20T17:01:01.180Z,99706.00
2019-06-20T17:03:41.806Z,99696.00
2019-06-20T17:06:04.653Z,99693.00
2019-06-20T17:08:35.030Z,99693.00
2019-06-20T17:11:06.006Z,99690.00
2019-06-20T17:13:36.370Z,99697.00
2019-06-20T17:16:06.744Z,99694.00
2019-06-20T17:18:37.112Z,99695.00
2019-06-20T17:21:07.567Z,99699.00
2019-06-20T17:23:37.958Z,99695.00
2019-06-20T17:26:08.323Z,99703.00
2019-06-20T17:28:38.693Z,99715.00
2019-06-20T17:31:09.059Z,99714.00
2019-06-20T17:33:39.446Z,99709.00
2019-06-20T17:36:18.323Z,99709.00
2019-06-20T17:38:43.911Z,99722.00
2019-06-20T17:41:14.353Z,99711.00
2019-06-20T17:43:45.775Z,99719.00
2019-06-20T17:46:16.429Z,99719.00
2019-06-20T17:48:46.805Z,99725.00
2019-06-20T17:51:17.162Z,99735.00
2019-06-20T17:53:49.606Z,99726.00
2019-06-20T17:56:19.616Z,99739.00
2019-06-20T17:58:49.967Z,99741.00
2019-06-20T18:01:20.327Z,99750.00
2019-06-20T18:03:50.788Z,99765.00
2019-06-20T18:06:21.156Z,99761.00
2019-06-20T18:08:51.534Z,99755.00
2019-06-20T18:11:22.902Z,99756.00
2019-06-20T18:13:53.333Z,99764.00
2019-06-20T18:16:25.384Z,99766.00
2019-06-20T18:18:57.026Z,99777.00
2019-06-20T18:21:27.436Z,99769.00
2019-06-20T18:23:57.756Z,99764.00
2019-06-20T18:26:28.140Z,99735.00
2019-06-20T18:28:58.536Z,99762.00
2019-06-20T18:31:28.945Z,99764.00
2019-06-20T18:33:59.387Z,99771.00
2019-06-20T18:36:29.756Z,99771.00
2019-06-20T18:39:00.122Z,99776.00
2019-06-20T18:41:30.496Z,99770.00
2019-06-20T18:44:00.860Z,99760.00
2019-06-20T18:46:31.233Z,99758.00
2019-06-20T18:49:01.612Z,99759.00
2019-06-20T18:51:31.971Z,99761.00
2019-06-20T18:54:02.363Z,99774.00
2019-06-20T18:56:32.788Z,99772.00
2019-06-20T18:59:03.150Z,99776.00
2019-06-20T19:01:34.469Z,99772.00
2019-06-20T19:04:06.066Z,99789.00
2019-06-20T19:06:36.627Z,99787.00
2019-06-20T19:09:09.694Z,99784.00
2019-06-20T19:11:40.176Z,99790.00
2019-06-20T19:14:12.681Z,99806.00
2019-06-20T19:16:43.154Z,99802.00
2019-06-20T19:19:13.520Z,99810.00
2019-06-20T19:21:43.891Z,99822.00
2019-06-20T19:24:14.255Z,99823.00
2019-06-20T19:26:44.728Z,99824.00
2019-06-20T19:29:15.091Z,99829.00
2019-06-20T19:31:45.454Z,99832.00
2019-06-20T19:34:15.816Z,99838.00
2019-06-20T19:36:46.187Z,99844.00
2019-06-20T19:39:16.553Z,99840.00
2019-06-20T19:41:46.930Z,99847.00
2019-06-20T19:44:17.323Z,99826.00
2019-06-20T19:46:47.660Z,99832.00
2019-06-20T19:49:18.024Z,99841.00
2019-06-20T19:51:48.403Z,99840.00
2019-06-20T19:54:18.834Z,99841.00
2019-06-20T19:56:49.377Z,99848.00
2019-06-20T19:59:20.031Z,99850.00
2019-06-20T20:01:50.412Z,99838.00
2019-06-20T20:04:20.783Z,99844.00
2019-06-20T20:06:51.154Z,99847.00
2019-06-20T20:09:21.564Z,99861.00
2019-06-20T20:11:51.968Z,99860.00
2019-06-20T20:14:22.504Z,99846.00
2019-06-20T20:16:52.880Z,99834.00
2019-06-20T20:19:23.239Z,99841.00
2019-06-20T20:21:53.621Z,99848.00
2019-06-20T20:24:23.985Z,99849.00
2019-06-20T20:26:54.350Z,99851.00
2019-06-20T20:29:24.722Z,99863.00
2019-06-20T20:31:55.086Z,99864.00
2019-06-20T20:34:25.454Z,99882.00
2019-06-20T20:36:55.818Z,99874.00
2019-06-20T20:39:26.418Z,99875.00
2019-06-20T20:41:56.805Z,99870.00
2019-06-20T20:44:27.166Z,99884.00
2019-06-20T20:46:57.540Z,99917.00
2019-06-20T20:49:27.933Z,99933.00
2019-06-20T20:51:58.284Z,99956.00
2019-06-20T20:54:28.661Z,99964.00
2019-06-20T20:56:59.068Z,99960.00
2019-06-20T20:59:29.649Z,99962.00
2019-06-20T21:02:00.979Z,99969.00
2019-06-20T21:04:31.355Z,99973.00
2019-06-20T21:07:01.743Z,99970.00
2019-06-20T21:09:32.167Z,99970.00
2019-06-20T21:12:02.540Z,99956.00
2019-06-20T21:14:32.903Z,99961.00
2019-06-20T21:17:03.275Z,99954.00
2019-06-20T21:19:33.642Z,99944.00
2019-06-20T21:22:04.078Z,99938.00
2019-06-20T21:24:34.446Z,99944.00
2019-06-20T21:27:04.818Z,99955.00
2019-06-20T21:29:35.186Z,99965.00
2019-06-20T21:32:06.215Z,99965.00
2019-06-20T21:34:36.594Z,99969.00
2019-06-20T21:37:07.033Z,99965.00
2019-06-20T21:39:38.825Z,99965.00
2019-06-20T21:42:09.342Z,99979.00
2019-06-20T21:44:39.985Z,99985.00
2019-06-20T21:47:10.410Z,99987.00
2019-06-20T21:49:40.807Z,99989.00
2019-06-20T21:52:11.161Z,99982.00
2019-06-20T21:54:41.542Z,99977.00
2019-06-20T21:57:11.912Z,99971.00
2019-06-20T21:59:42.283Z,99965.00
2019-06-20T22:02:12.735Z,99964.00
2019-06-20T22:04:54.004Z,99952.00
2019-06-20T22:07:15.175Z,99964.00
2019-06-20T22:09:45.549Z,99955.00
2019-06-20T22:12:16.134Z,99962.00
2019-06-20T22:14:46.512Z,99951.00
2019-06-20T22:17:16.877Z,99934.00
2019-06-20T22:19:47.251Z,99934.00
2019-06-20T22:22:17.618Z,99927.00
2019-06-20T22:24:48.011Z,99923.00
2019-06-20T22:27:18.361Z,99919.00
2019-06-20T22:29:48.737Z,99918.00
2019-06-20T22:32:19.189Z,99924.00
2019-06-20T22:34:49.570Z,99931.00
2019-06-20T22:37:19.926Z,99930.00
2019-06-20T22:39:50.290Z,99943.00
2019-06-20T22:42:20.652Z,99936.00
2019-06-20T22:44:51.033Z,99934.00
2019-06-20T22:47:21.404Z,99934.00
2019-06-20T22:49:51.793Z,99936.00
2019-06-20T22:52:22.162Z,99955.00
2019-06-20T22:54:52.545Z,99950.00
2019-06-20T22:57:22.911Z,99944.00
2019-06-20T22:59:53.569Z,99947.00
2019-06-20T23:02:23.937Z,99957.00
2019-06-20T23:04:54.325Z,99959.00
2019-06-20T23:07:24.683Z,99958.00
2019-06-20T23:10:09.210Z,99964.00
2019-06-20T23:12:27.774Z,99969.00
2019-06-20T23:14:58.139Z,99969.00
2019-06-20T23:17:28.546Z,99971.00
2019-06-20T23:19:58.926Z,99972.00
2019-06-20T23:22:29.321Z,99973.00
2019-06-20T23:24:59.710Z,99979.00
2019-06-20T23:27:30.072Z,99976.00
2019-06-20T23:30:00.677Z,99979.00
2019-06-20T23:32:31.112Z,99989.00
2019-06-20T23:35:01.483Z,99988.00
2019-06-20T23:37:32.128Z,99988.00
2019-06-20T23:40:03.730Z,99991.00
2019-06-20T23:42:34.415Z,99994.00
2019-06-20T23:45:06.743Z,99994.00
2019-06-20T23:47:37.330Z,99992.00
2019-06-20T23:50:18.304Z,100003.00
2019-06-20T23:52:51.929Z,100004.00
2019-06-20T23:55:22.299Z,100006.00
2019-06-20T23:57:53.064Z,100008.00
